Time;durP1;ratioP1;P1;durP2;ratioP2;P2;SDS_P1;SDS_P2;PMS_P1;PMS_P2;Temp;Humidity;BMP_temperature;BMP_pressure;BME280_temperature;BME280_humidity;BME280_pressure;Samples;Min_cycle;Max_cycle;Signal;HPM_P1;HPM_P2
2023/10/08 00:02:26;;;;;;;4.60;2.70;;;;;;;;;;5073737;28;20225;-84
2023/10/08 00:04:55;;;;;;;4.03;2.77;;;;;;;;;;5073789;28;20249;-84
2023/10/08 00:07:24;;;;;;;2.63;2.43;;;;;;;;;;5073698;28;20372;-84
2023/10/08 00:09:55;;;;;;;9.17;7.03;;;;;;;;;;5073616;28;20205;-84
2023/10/08 00:12:24;;;;;;;0.73;0.73;;;;;;;;;;5073439;28;20233;-84
2023/10/08 00:14:54;;;;;;;6.87;2.47;;;;;;;;;;5073739;28;20193;-84
2023/10/08 00:17:23;;;;;;;1.53;1.43;;;;;;;;;;5073551;28;20240;-85
2023/10/08 00:19:52;;;;;;;0.40;0.40;;;;;;;;;;5073644;28;20255;-85
2023/10/08 00:22:24;;;;;;;0.20;0.20;;;;;;;;;;5073539;28;20217;-85
2023/10/08 00:24:58;;;;;;;3.03;1.07;;;;;;;;;;5074038;28;20237;-85
2023/10/08 00:27:26;;;;;;;0.23;0.23;;;;;;;;;;5073576;28;20279;-86
2023/10/08 00:29:56;;;;;;;0.40;0.40;;;;;;;;;;5073287;28;20190;-86
2023/10/08 00:32:24;;;;;;;0.40;0.40;;;;;;;;;;5073827;28;20204;-86
2023/10/08 00:34:54;;;;;;;0.30;0.30;;;;;;;;;;5074065;28;20195;-86
2023/10/08 00:37:26;;;;;;;0.30;0.30;;;;;;;;;;5073850;28;20209;-86
2023/10/08 00:39:57;;;;;;;6.77;3.73;;;;;;;;;;5072113;28;20198;-85
2023/10/08 00:42:28;;;;;;;0.20;0.20;;;;;;;;;;5073144;28;20575;-85
2023/10/08 00:44:57;;;;;;;0.63;0.63;;;;;;;;;;5073593;28;20209;-86
2023/10/08 00:47:27;;;;;;;0.30;0.30;;;;;;;;;;5073057;28;20200;-85
2023/10/08 00:50:06;;;;;;;1.60;1.43;;;;;;;;;;5072809;28;20197;-85
2023/10/08 00:52:41;;;;;;;0.70;0.70;;;;;;;;;;5072913;28;20197;-86
2023/10/08 00:55:20;;;;;;;0.70;0.70;;;;;;;;;;5073605;28;20205;-85
2023/10/08 00:57:53;;;;;;;0.30;0.30;;;;;;;;;;5072771;28;20234;-86
2023/10/08 01:00:22;;;;;;;0.30;0.30;;;;;;;;;;5072646;28;20202;-85
2023/10/08 01:03:00;;;;;;;0.83;0.67;;;;;;;;;;5072782;28;20257;-86
2023/10/08 01:05:42;;;;;;;0.30;0.30;;;;;;;;;;5073199;28;20249;-85
2023/10/08 01:08:14;;;;;;;1.00;1.00;;;;;;;;;;5072756;28;20217;-86
2023/10/08 01:10:46;;;;;;;6.60;5.20;;;;;;;;;;5073189;28;20296;-86
2023/10/08 01:13:19;;;;;;;0.77;0.77;;;;;;;;;;5072942;28;20200;-86
2023/10/08 01:15:51;;;;;;;4.00;1.20;;;;;;;;;;5072784;28;20206;-85
2023/10/08 01:18:29;;;;;;;0.30;0.30;;;;;;;;;;5072646;28;20208;-85
2023/10/08 01:21:08;;;;;;;1.50;1.40;;;;;;;;;;5073121;28;20213;-85
2023/10/08 01:23:38;;;;;;;5.27;3.60;;;;;;;;;;5072944;28;20208;-86
2023/10/08 01:26:11;;;;;;;0.83;0.83;;;;;;;;;;5072324;28;20244;-85
2023/10/08 01:28:43;;;;;;;1.33;0.80;;;;;;;;;;5072550;28;20259;-85
2023/10/08 01:31:13;;;;;;;2.63;1.33;;;;;;;;;;5072005;28;20269;-85
2023/10/08 01:33:49;;;;;;;1.60;1.50;;;;;;;;;;5072290;28;20196;-85
2023/10/08 01:36:18;;;;;;;7.57;1.77;;;;;;;;;;5072002;28;20201;-86
2023/10/08 01:38:49;;;;;;;1.40;0.70;;;;;;;;;;5072205;28;20203;-86
2023/10/08 01:41:29;;;;;;;14.93;1.27;;;;;;;;;;5072593;28;20201;-86
2023/10/08 01:43:58;;;;;;;2.13;1.53;;;;;;;;;;5072206;28;20242;-85
2023/10/08 01:46:27;;;;;;;7.83;1.63;;;;;;;;;;5071254;28;20192;-85
2023/10/08 01:49:04;;;;;;;0.57;0.57;;;;;;;;;;5071822;28;20213;-85
2023/10/08 01:51:46;;;;;;;0.60;0.60;;;;;;;;;;5072427;28;20202;-86
2023/10/08 01:54:20;;;;;;;0.90;0.90;;;;;;;;;;5072008;28;20239;-85
2023/10/08 01:56:50;;;;;;;1.10;1.10;;;;;;;;;;5071348;28;20454;-85
2023/10/08 01:59:19;;;;;;;1.90;1.53;;;;;;;;;;5072274;28;20483;-86
2023/10/08 02:01:47;;;;;;;5.63;1.53;;;;;;;;;;5072057;28;20202;-86
2023/10/08 02:04:17;;;;;;;1.03;0.87;;;;;;;;;;5071388;28;20204;-85
2023/10/08 02:06:46;;;;;;;3.50;3.00;;;;;;;;;;5071816;28;20263;-86
2023/10/08 02:09:16;;;;;;;2.83;1.97;;;;;;;;;;5072122;28;20268;-86
2023/10/08 02:11:46;;;;;;;1.67;1.63;;;;;;;;;;5072272;28;20206;-86
2023/10/08 02:14:15;;;;;;;7.37;4.97;;;;;;;;;;5071668;28;20245;-86
2023/10/08 02:16:44;;;;;;;5.17;2.23;;;;;;;;;;5071295;28;20225;-85
2023/10/08 02:19:13;;;;;;;4.50;2.13;;;;;;;;;;5072042;28;20220;-86
2023/10/08 02:21:46;;;;;;;7.10;2.67;;;;;;;;;;5072187;28;20234;-85
2023/10/08 02:24:14;;;;;;;3.20;1.63;;;;;;;;;;5070706;28;20201;-85
2023/10/08 02:26:44;;;;;;;11.50;2.63;;;;;;;;;;5071239;28;20206;-85
2023/10/08 02:29:13;;;;;;;1.03;0.80;;;;;;;;;;5071917;28;20214;-85
2023/10/08 02:31:43;;;;;;;1.90;1.70;;;;;;;;;;5071845;28;20287;-85
2023/10/08 02:34:13;;;;;;;4.37;2.33;;;;;;;;;;5071461;28;20206;-85
2023/10/08 02:36:41;;;;;;;1.90;1.37;;;;;;;;;;5071610;28;20217;-85
2023/10/08 02:39:20;;;;;;;2.97;1.70;;;;;;;;;;5072064;28;20210;-85
2023/10/08 02:41:51;;;;;;;1.27;1.23;;;;;;;;;;5071862;28;20209;-85
2023/10/08 02:44:20;;;;;;;1.80;1.40;;;;;;;;;;5070867;28;20453;-85
2023/10/08 02:46:51;;;;;;;4.17;2.20;;;;;;;;;;5071656;28;20205;-85
2023/10/08 02:49:20;;;;;;;1.43;1.33;;;;;;;;;;5071619;28;20220;-85
2023/10/08 02:51:50;;;;;;;7.83;0.70;;;;;;;;;;5071424;28;20202;-86
2023/10/08 02:54:20;;;;;;;1.20;1.10;;;;;;;;;;5071320;28;20206;-86
2023/10/08 02:56:52;;;;;;;2.93;1.67;;;;;;;;;;5071549;28;20214;-85
2023/10/08 02:59:23;;;;;;;6.23;1.60;;;;;;;;;;5071507;28;20193;-85
2023/10/08 03:01:55;;;;;;;0.83;0.83;;;;;;;;;;5071905;28;20236;-85
2023/10/08 03:04:27;;;;;;;1.93;1.80;;;;;;;;;;5074981;28;20209;-85
2023/10/08 03:06:56;;;;;;;0.83;0.60;;;;;;;;;;5075053;28;20220;-86
2023/10/08 03:09:31;;;;;;;1.10;0.93;;;;;;;;;;5075022;28;20233;-85
2023/10/08 03:11:59;;;;;;;3.10;1.30;;;;;;;;;;5074617;28;20204;-85
2023/10/08 03:14:41;;;;;;;0.30;0.30;;;;;;;;;;5074795;28;20213;-86
2023/10/08 03:17:10;;;;;;;2.77;0.93;;;;;;;;;;5075015;28;20221;-86
2023/10/08 03:19:44;;;;;;;4.30;0.87;;;;;;;;;;5074419;28;20212;-86
2023/10/08 03:22:18;;;;;;;0.47;0.47;;;;;;;;;;5074508;28;20197;-85
2023/10/08 03:24:48;;;;;;;0.57;0.57;;;;;;;;;;5074595;28;20233;-86
2023/10/08 03:27:20;;;;;;;1.50;0.97;;;;;;;;;;5074418;28;20194;-85
2023/10/08 03:29:51;;;;;;;1.30;1.23;;;;;;;;;;5074831;28;20259;-85
2023/10/08 03:32:26;;;;;;;0.60;0.60;;;;;;;;;;5073995;28;20208;-85
2023/10/08 03:34:55;;;;;;;1.40;1.00;;;;;;;;;;5074807;28;20229;-85
2023/10/08 03:37:30;;;;;;;0.80;0.80;;;;;;;;;;5074384;28;20201;-86
2023/10/08 03:40:07;;;;;;;0.70;0.70;;;;;;;;;;5074542;28;20189;-85
2023/10/08 03:42:40;;;;;;;1.17;0.87;;;;;;;;;;5074858;28;20209;-86
2023/10/08 03:45:11;;;;;;;0.50;0.50;;;;;;;;;;5075044;28;20309;-85
2023/10/08 03:47:46;;;;;;;2.10;0.70;;;;;;;;;;5074412;28;20236;-86
2023/10/08 03:50:17;;;;;;;1.50;1.40;;;;;;;;;;5073926;28;20252;-85
2023/10/08 03:52:48;;;;;;;0.70;0.70;;;;;;;;;;5074087;28;20209;-85
2023/10/08 03:55:21;;;;;;;3.30;0.70;;;;;;;;;;5074080;28;20209;-85
2023/10/08 03:57:56;;;;;;;2.57;1.60;;;;;;;;;;5074594;28;20215;-85
2023/10/08 04:00:31;;;;;;;0.93;0.93;;;;;;;;;;5073670;28;20203;-85
2023/10/08 04:03:07;;;;;;;0.40;0.40;;;;;;;;;;5074787;28;20203;-85
2023/10/08 04:05:59;;;;;;;1.03;0.97;;;;;;;;;;5074363;28;20207;-85
2023/10/08 04:11:22;;;;;;;1.10;1.00;;;;;;;;;;5074033;28;20536;-85
2023/10/08 04:13:52;;;;;;;0.50;0.50;;;;;;;;;;5074125;28;20204;-85
2023/10/08 04:16:22;;;;;;;0.50;0.50;;;;;;;;;;5073884;28;20234;-85
2023/10/08 04:18:55;;;;;;;0.60;0.60;;;;;;;;;;5073436;28;20254;-86
2023/10/08 04:21:27;;;;;;;0.40;0.40;;;;;;;;;;5073950;28;20223;-85
2023/10/08 04:23:57;;;;;;;0.40;0.40;;;;;;;;;;5073670;28;20205;-85
2023/10/08 04:26:26;;;;;;;0.50;0.50;;;;;;;;;;5074137;28;20303;-85
2023/10/08 04:28:57;;;;;;;0.57;0.57;;;;;;;;;;5073569;28;20429;-85
2023/10/08 04:31:36;;;;;;;0.60;0.60;;;;;;;;;;5073531;28;20220;-85
2023/10/08 04:34:10;;;;;;;0.40;0.40;;;;;;;;;;5074275;28;20277;-85
2023/10/08 04:36:40;;;;;;;0.90;0.90;;;;;;;;;;5073383;28;20208;-85
2023/10/08 04:39:13;;;;;;;1.27;1.17;;;;;;;;;;5073424;28;20235;-85
2023/10/08 04:41:42;;;;;;;0.73;0.67;;;;;;;;;;5073920;28;20243;-85
2023/10/08 04:44:14;;;;;;;0.40;0.40;;;;;;;;;;5073367;28;20299;-85
2023/10/08 04:46:51;;;;;;;1.60;1.40;;;;;;;;;;5072999;28;20254;-85
2023/10/08 04:49:30;;;;;;;3.33;0.80;;;;;;;;;;5072851;28;20214;-84
2023/10/08 04:51:59;;;;;;;0.57;0.57;;;;;;;;;;5072584;28;20231;-84
2023/10/08 04:54:30;;;;;;;0.77;0.77;;;;;;;;;;5072985;28;20212;-83
2023/10/08 04:57:00;;;;;;;0.47;0.47;;;;;;;;;;5072005;28;20215;-84
2023/10/08 04:59:33;;;;;;;1.40;1.20;;;;;;;;;;5072758;28;20216;-83
2023/10/08 05:02:19;;;;;;;2.93;2.63;;;;;;;;;;5072622;28;20197;-84
2023/10/08 05:05:21;;;;;;;0.53;0.53;;;;;;;;;;5072789;28;20208;-84
2023/10/08 05:10:45;;;;;;;0.73;0.73;;;;;;;;;;5071555;28;20232;-84
2023/10/08 05:13:16;;;;;;;3.93;0.97;;;;;;;;;;5072726;28;20205;-84
2023/10/08 05:16:06;;;;;;;1.13;1.13;;;;;;;;;;5071738;28;20197;-84
2023/10/08 05:21:28;;;;;;;0.90;0.70;;;;;;;;;;5072403;28;20201;-84
2023/10/08 05:24:13;;;;;;;0.80;0.80;;;;;;;;;;5072163;28;20222;-84
2023/10/08 05:26:45;;;;;;;0.90;0.90;;;;;;;;;;5071886;28;20210;-84
2023/10/08 05:34:51;;;;;;;0.73;0.70;;;;;;;;;;5071112;28;20211;-84
2023/10/08 05:37:42;;;;;;;0.60;0.60;;;;;;;;;;5071849;28;20203;-84
2023/10/08 05:40:21;;;;;;;1.07;0.97;;;;;;;;;;5072049;28;20300;-84
2023/10/08 05:43:00;;;;;;;0.50;0.50;;;;;;;;;;5071973;28;20195;-84
2023/10/08 05:45:33;;;;;;;0.50;0.50;;;;;;;;;;5071426;28;20212;-83
2023/10/08 05:48:15;;;;;;;0.60;0.60;;;;;;;;;;5072054;28;20200;-84
2023/10/08 05:51:12;;;;;;;0.70;0.70;;;;;;;;;;5071879;28;20225;-84
2023/10/08 05:53:43;;;;;;;0.30;0.30;;;;;;;;;;5071825;28;20258;-84
2023/10/08 05:56:28;;;;;;;0.47;0.43;;;;;;;;;;5071783;28;20238;-84
2023/10/08 05:59:14;;;;;;;0.40;0.40;;;;;;;;;;5072317;28;20211;-84
2023/10/08 06:01:46;;;;;;;0.40;0.40;;;;;;;;;;5071703;28;20287;-84
2023/10/08 06:04:42;;;;;;;0.43;0.43;;;;;;;;;;5071476;28;20202;-84
2023/10/08 06:07:16;;;;;;;0.40;0.40;;;;;;;;;;5071887;28;20330;-84
2023/10/08 06:10:01;;;;;;;0.50;0.50;;;;;;;;;;5071811;28;20211;-84
2023/10/08 06:12:30;;;;;;;0.70;0.70;;;;;;;;;;5071184;28;20315;-84
2023/10/08 06:15:08;;;;;;;0.43;0.43;;;;;;;;;;5071641;28;20282;-86
2023/10/08 06:20:26;;;;;;;0.77;0.63;;;;;;;;;;5072209;28;20260;-86
2023/10/08 06:23:03;;;;;;;0.77;0.67;;;;;;;;;;5071330;28;20193;-85
2023/10/08 06:25:31;;;;;;;0.50;0.50;;;;;;;;;;5071724;28;20237;-86
2023/10/08 06:28:02;;;;;;;1.23;0.60;;;;;;;;;;5071628;28;20205;-85
2023/10/08 06:30:34;;;;;;;0.40;0.40;;;;;;;;;;5071396;28;20234;-85
2023/10/08 06:33:03;;;;;;;0.60;0.60;;;;;;;;;;5071293;28;20197;-85
2023/10/08 06:35:33;;;;;;;0.60;0.60;;;;;;;;;;5071821;28;20197;-86
2023/10/08 06:38:07;;;;;;;0.53;0.53;;;;;;;;;;5074457;28;20304;-85
2023/10/08 06:40:42;;;;;;;0.50;0.50;;;;;;;;;;5076116;28;20403;-85
2023/10/08 06:43:21;;;;;;;0.50;0.50;;;;;;;;;;5075460;28;20292;-85
2023/10/08 06:45:55;;;;;;;0.50;0.50;;;;;;;;;;5076138;28;20201;-84
2023/10/08 06:48:24;;;;;;;0.50;0.50;;;;;;;;;;5075712;28;20205;-86
2023/10/08 06:50:56;;;;;;;0.60;0.60;;;;;;;;;;5075538;28;20225;-85
2023/10/08 06:53:29;;;;;;;0.77;0.77;;;;;;;;;;5075947;28;20209;-85
2023/10/08 06:56:03;;;;;;;0.40;0.40;;;;;;;;;;5075394;28;20258;-85
2023/10/08 06:58:33;;;;;;;0.40;0.40;;;;;;;;;;5075072;28;20220;-84
2023/10/08 07:01:04;;;;;;;1.13;0.60;;;;;;;;;;5075092;28;20298;-86
2023/10/08 07:03:34;;;;;;;0.53;0.53;;;;;;;;;;5075119;28;20201;-85
2023/10/08 07:06:16;;;;;;;2.93;0.80;;;;;;;;;;5075595;28;20201;-85
2023/10/08 07:08:54;;;;;;;1.90;1.07;;;;;;;;;;5074983;28;20201;-86
2023/10/08 07:11:24;;;;;;;1.43;0.83;;;;;;;;;;5075287;28;20294;-85
2023/10/08 07:13:52;;;;;;;0.60;0.60;;;;;;;;;;5075331;28;20446;-85
2023/10/08 07:16:21;;;;;;;0.40;0.40;;;;;;;;;;5075278;28;20463;-86
2023/10/08 07:18:51;;;;;;;1.30;1.27;;;;;;;;;;5074989;28;20323;-86
2023/10/08 07:21:28;;;;;;;0.60;0.60;;;;;;;;;;5075194;28;20227;-86
2023/10/08 07:23:59;;;;;;;0.50;0.50;;;;;;;;;;5074908;28;20231;-86
2023/10/08 07:26:35;;;;;;;0.60;0.50;;;;;;;;;;5074759;28;20197;-86
2023/10/08 07:29:08;;;;;;;1.70;0.80;;;;;;;;;;5074334;28;20258;-86
2023/10/08 07:31:37;;;;;;;0.60;0.60;;;;;;;;;;5075512;28;20220;-86
2023/10/08 07:34:17;;;;;;;0.90;0.90;;;;;;;;;;5075032;28;20223;-85
2023/10/08 07:36:49;;;;;;;3.80;1.30;;;;;;;;;;5074539;28;20189;-86
2023/10/08 07:39:33;;;;;;;0.60;0.60;;;;;;;;;;5074430;28;20257;-86
2023/10/08 07:42:05;;;;;;;2.63;1.73;;;;;;;;;;5074755;28;20201;-86
2023/10/08 07:44:35;;;;;;;0.53;0.53;;;;;;;;;;5074600;28;20210;-86
2023/10/08 07:47:09;;;;;;;1.13;1.03;;;;;;;;;;5073982;28;20199;-86
2023/10/08 07:49:39;;;;;;;1.13;0.60;;;;;;;;;;5074276;28;20203;-86
2023/10/08 07:52:07;;;;;;;0.50;0.50;;;;;;;;;;5074481;28;20224;-85
2023/10/08 07:54:37;;;;;;;0.40;0.40;;;;;;;;;;5073916;28;20215;-86
2023/10/08 07:57:12;;;;;;;0.60;0.60;;;;;;;;;;5073443;28;20194;-85
2023/10/08 07:59:46;;;;;;;0.60;0.60;;;;;;;;;;5074121;28;20208;-85
2023/10/08 08:02:17;;;;;;;0.40;0.40;;;;;;;;;;5074096;28;20206;-85
2023/10/08 08:04:50;;;;;;;4.93;0.70;;;;;;;;;;5073694;28;20233;-86
2023/10/08 08:07:19;;;;;;;5.63;0.60;;;;;;;;;;5073401;28;20258;-85
2023/10/08 08:09:51;;;;;;;3.87;0.80;;;;;;;;;;5074034;28;20233;-85
2023/10/08 08:12:22;;;;;;;1.20;0.67;;;;;;;;;;5074438;28;20320;-85
2023/10/08 08:14:51;;;;;;;0.57;0.57;;;;;;;;;;5073875;28;20266;-86
2023/10/08 08:17:22;;;;;;;0.40;0.40;;;;;;;;;;5073222;28;20209;-85
2023/10/08 08:19:52;;;;;;;0.67;0.67;;;;;;;;;;5074091;28;20229;-85
2023/10/08 08:22:22;;;;;;;1.20;0.40;;;;;;;;;;5073852;28;20207;-85
2023/10/08 08:24:56;;;;;;;1.07;0.80;;;;;;;;;;5073330;28;20290;-86
2023/10/08 08:27:31;;;;;;;1.80;0.47;;;;;;;;;;5073305;28;20193;-86
2023/10/08 08:30:10;;;;;;;2.10;1.97;;;;;;;;;;5073848;28;20349;-85
2023/10/08 08:32:40;;;;;;;2.93;0.90;;;;;;;;;;5074327;28;20278;-86
2023/10/08 08:35:10;;;;;;;0.80;0.80;;;;;;;;;;5073341;28;20225;-85
2023/10/08 08:37:39;;;;;;;1.30;0.93;;;;;;;;;;5073279;28;20213;-86
2023/10/08 08:40:17;;;;;;;1.23;1.10;;;;;;;;;;5073645;28;20290;-85
2023/10/08 08:42:46;;;;;;;1.43;0.90;;;;;;;;;;5073480;28;20197;-86
2023/10/08 08:45:15;;;;;;;2.13;1.13;;;;;;;;;;5072676;28;20200;-85
2023/10/08 08:47:44;;;;;;;0.83;0.80;;;;;;;;;;5073084;28;20199;-85
2023/10/08 08:50:13;;;;;;;3.43;1.50;;;;;;;;;;5073235;28;20205;-85
2023/10/08 08:52:43;;;;;;;0.97;0.90;;;;;;;;;;5072940;28;20224;-85
2023/10/08 08:55:14;;;;;;;1.33;0.53;;;;;;;;;;5072687;28;20206;-85
2023/10/08 08:57:43;;;;;;;6.37;1.13;;;;;;;;;;5073109;28;20205;-86
2023/10/08 09:00:13;;;;;;;3.53;1.07;;;;;;;;;;5072439;28;20209;-86
2023/10/08 09:02:44;;;;;;;1.27;0.80;;;;;;;;;;5072613;28;20239;-86
2023/10/08 09:05:25;;;;;;;4.67;1.40;;;;;;;;;;5072669;28;20212;-86
2023/10/08 09:07:55;;;;;;;0.50;0.50;;;;;;;;;;5072614;28;20203;-86
2023/10/08 09:10:27;;;;;;;7.97;1.40;;;;;;;;;;5072885;28;20197;-86
2023/10/08 09:12:58;;;;;;;0.77;0.70;;;;;;;;;;5072563;28;20214;-86
2023/10/08 09:15:27;;;;;;;0.63;0.63;;;;;;;;;;5072544;28;20202;-86
2023/10/08 09:17:56;;;;;;;0.60;0.60;;;;;;;;;;5072574;28;20202;-86
2023/10/08 09:20:26;;;;;;;2.60;1.07;;;;;;;;;;5072759;28;20223;-86
2023/10/08 09:23:11;;;;;;;5.57;1.23;;;;;;;;;;5071820;28;20305;-86
2023/10/08 09:25:41;;;;;;;1.77;1.17;;;;;;;;;;5072345;28;20233;-86
2023/10/08 09:28:12;;;;;;;5.73;1.40;;;;;;;;;;5073091;28;20205;-85
2023/10/08 09:30:44;;;;;;;5.50;1.60;;;;;;;;;;5072867;28;20194;-85
2023/10/08 09:33:14;;;;;;;1.00;0.70;;;;;;;;;;5072400;28;20277;-85
2023/10/08 09:35:44;;;;;;;3.97;1.07;;;;;;;;;;5072658;28;20194;-86
2023/10/08 09:38:13;;;;;;;4.40;1.70;;;;;;;;;;5072710;28;20216;-86
2023/10/08 09:40:44;;;;;;;2.47;0.80;;;;;;;;;;5072101;28;20228;-86
2023/10/08 09:43:13;;;;;;;2.70;1.10;;;;;;;;;;5072133;28;20197;-85
2023/10/08 09:45:44;;;;;;;3.67;1.20;;;;;;;;;;5072367;28;20206;-86
2023/10/08 09:48:13;;;;;;;3.90;0.80;;;;;;;;;;5072818;28;20276;-86
2023/10/08 09:50:44;;;;;;;1.50;0.97;;;;;;;;;;5072503;28;20200;-86
2023/10/08 09:53:16;;;;;;;4.83;1.17;;;;;;;;;;5071944;28;20316;-86
2023/10/08 09:55:50;;;;;;;3.70;1.57;;;;;;;;;;5072577;28;20215;-86
2023/10/08 09:58:24;;;;;;;7.10;1.83;;;;;;;;;;5071251;28;20217;-86
2023/10/08 10:00:53;;;;;;;4.93;1.63;;;;;;;;;;5069393;28;20209;-86
2023/10/08 10:03:31;;;;;;;1.00;0.90;;;;;;;;;;5070899;28;20256;-86
2023/10/08 10:06:00;;;;;;;2.73;1.27;;;;;;;;;;5063644;28;20233;-85
2023/10/08 10:08:35;;;;;;;2.10;1.17;;;;;;;;;;5065695;28;20205;-86
2023/10/08 10:11:06;;;;;;;0.50;0.50;;;;;;;;;;5068073;28;20215;-86
2023/10/08 10:13:36;;;;;;;1.73;0.90;;;;;;;;;;5074885;28;20224;-86
2023/10/08 10:16:13;;;;;;;3.33;1.23;;;;;;;;;;5074768;28;20199;-85
2023/10/08 10:18:46;;;;;;;2.70;0.90;;;;;;;;;;5074120;28;20231;-85
2023/10/08 10:21:32;;;;;;;1.83;1.00;;;;;;;;;;5075009;28;20220;-86
2023/10/08 10:24:02;;;;;;;3.93;1.10;;;;;;;;;;5070617;28;20201;-87
2023/10/08 10:26:33;;;;;;;1.63;1.23;;;;;;;;;;5069679;28;20290;-87
2023/10/08 10:29:22;;;;;;;1.70;1.10;;;;;;;;;;5069705;28;20492;-86
2023/10/08 10:31:53;;;;;;;15.00;1.10;;;;;;;;;;5074669;28;20212;-87
2023/10/08 10:34:24;;;;;;;1.13;1.00;;;;;;;;;;5071662;28;20224;-87
2023/10/08 10:37:02;;;;;;;4.53;1.67;;;;;;;;;;5072505;28;20202;-86
2023/10/08 10:39:33;;;;;;;1.17;0.97;;;;;;;;;;5073365;28;20296;-85
2023/10/08 10:42:06;;;;;;;0.93;0.90;;;;;;;;;;5071764;28;20213;-85
2023/10/08 10:44:36;;;;;;;4.37;1.30;;;;;;;;;;5070763;28;20230;-84
2023/10/08 10:47:27;;;;;;;3.67;1.57;;;;;;;;;;5070143;28;20202;-85
2023/10/08 10:50:16;;;;;;;6.13;1.60;;;;;;;;;;5071564;28;20213;-85
2023/10/08 10:52:51;;;;;;;2.80;0.93;;;;;;;;;;5072823;28;20254;-87
2023/10/08 10:55:31;;;;;;;1.90;1.13;;;;;;;;;;5073638;28;20209;-87
2023/10/08 10:58:15;;;;;;;6.23;1.10;;;;;;;;;;5075493;28;20211;-85
2023/10/08 11:00:57;;;;;;;1.40;0.93;;;;;;;;;;5072447;28;20248;-84
2023/10/08 11:03:28;;;;;;;0.70;0.70;;;;;;;;;;5072579;28;20197;-84
2023/10/08 11:05:59;;;;;;;1.23;0.97;;;;;;;;;;5071723;28;20296;-85
2023/10/08 11:08:34;;;;;;;2.63;1.20;;;;;;;;;;5071514;28;20228;-85
2023/10/08 11:11:06;;;;;;;0.90;0.90;;;;;;;;;;5074247;28;20205;-85
2023/10/08 11:13:38;;;;;;;0.87;0.63;;;;;;;;;;5074659;28;20225;-85
2023/10/08 11:16:12;;;;;;;2.83;1.30;;;;;;;;;;5069862;28;20205;-84
2023/10/08 11:18:47;;;;;;;0.80;0.77;;;;;;;;;;5072184;28;20323;-86
2023/10/08 11:21:16;;;;;;;1.67;1.13;;;;;;;;;;5075304;28;20308;-84
2023/10/08 11:23:52;;;;;;;2.17;1.07;;;;;;;;;;5069049;28;20200;-84
2023/10/08 11:26:31;;;;;;;4.77;1.53;;;;;;;;;;5068021;28;20238;-84
2023/10/08 11:29:03;;;;;;;0.70;0.70;;;;;;;;;;5069325;28;20216;-84
2023/10/08 11:31:33;;;;;;;2.63;1.00;;;;;;;;;;5070239;28;20287;-84
2023/10/08 11:34:08;;;;;;;1.50;1.27;;;;;;;;;;5066197;28;20224;-85
2023/10/08 11:36:48;;;;;;;1.40;0.97;;;;;;;;;;5067753;28;20197;-84
2023/10/08 11:39:22;;;;;;;0.70;0.70;;;;;;;;;;5065898;28;20206;-84
2023/10/08 11:42:05;;;;;;;1.87;1.57;;;;;;;;;;5070202;28;20210;-84
2023/10/08 11:44:36;;;;;;;0.97;0.97;;;;;;;;;;5069053;28;20269;-83
2023/10/08 11:47:12;;;;;;;1.90;1.07;;;;;;;;;;5068893;28;20241;-84
2023/10/08 11:49:47;;;;;;;2.00;0.70;;;;;;;;;;5066319;28;20204;-84
2023/10/08 11:52:16;;;;;;;1.67;1.13;;;;;;;;;;5068242;28;20215;-84
2023/10/08 11:54:48;;;;;;;0.73;0.73;;;;;;;;;;5068952;28;20258;-84
2023/10/08 11:57:21;;;;;;;6.37;1.27;;;;;;;;;;5071293;28;20232;-84
2023/10/08 11:59:54;;;;;;;0.60;0.60;;;;;;;;;;5066265;28;20311;-84
2023/10/08 12:02:23;;;;;;;1.63;1.20;;;;;;;;;;5068609;28;20215;-84
2023/10/08 12:04:52;;;;;;;1.33;1.23;;;;;;;;;;5070962;28;20392;-84
2023/10/08 12:07:27;;;;;;;0.73;0.73;;;;;;;;;;5069294;28;20238;-84
2023/10/08 12:09:55;;;;;;;1.53;1.30;;;;;;;;;;5069130;28;20216;-84
2023/10/08 12:12:24;;;;;;;1.50;0.97;;;;;;;;;;5068918;28;20206;-84
2023/10/08 12:14:54;;;;;;;0.40;0.40;;;;;;;;;;5068680;28;20221;-85
2023/10/08 12:17:37;;;;;;;0.97;0.80;;;;;;;;;;5066163;28;20218;-85
2023/10/08 12:20:22;;;;;;;2.80;0.90;;;;;;;;;;5067021;28;20282;-85
2023/10/08 12:22:59;;;;;;;1.07;0.90;;;;;;;;;;5066260;28;20224;-85
2023/10/08 12:25:28;;;;;;;1.23;0.80;;;;;;;;;;5071380;28;20233;-85
2023/10/08 12:27:57;;;;;;;1.40;0.97;;;;;;;;;;5073869;28;20206;-86
2023/10/08 12:30:31;;;;;;;0.40;0.40;;;;;;;;;;5074051;28;20198;-85
2023/10/08 12:33:03;;;;;;;1.27;1.17;;;;;;;;;;5072549;28;20190;-85
2023/10/08 12:35:37;;;;;;;2.00;1.63;;;;;;;;;;5071818;28;20250;-86
2023/10/08 12:38:05;;;;;;;0.70;0.70;;;;;;;;;;5073063;28;20214;-86
2023/10/08 12:40:42;;;;;;;2.10;1.30;;;;;;;;;;5073394;28;20209;-86
2023/10/08 12:43:11;;;;;;;1.73;0.90;;;;;;;;;;5072795;28;20201;-85
2023/10/08 12:45:41;;;;;;;1.17;0.93;;;;;;;;;;5073266;28;20210;-86
2023/10/08 12:48:09;;;;;;;3.30;1.53;;;;;;;;;;5072729;28;20216;-86
2023/10/08 12:50:43;;;;;;;2.37;1.43;;;;;;;;;;5072950;28;20208;-86
2023/10/08 12:53:12;;;;;;;6.67;1.03;;;;;;;;;;5072937;28;20201;-86
2023/10/08 12:55:41;;;;;;;3.30;1.73;;;;;;;;;;5072415;28;20219;-86
2023/10/08 12:58:10;;;;;;;3.03;1.20;;;;;;;;;;5072243;28;20296;-86
2023/10/08 13:00:41;;;;;;;0.70;0.70;;;;;;;;;;5072738;28;20203;-86
2023/10/08 13:03:15;;;;;;;0.60;0.60;;;;;;;;;;5071992;28;20233;-85
2023/10/08 13:05:45;;;;;;;1.80;1.50;;;;;;;;;;5073111;28;20193;-85
2023/10/08 13:08:13;;;;;;;1.27;0.83;;;;;;;;;;5072682;28;20198;-87
2023/10/08 13:10:43;;;;;;;0.77;0.77;;;;;;;;;;5072422;28;20199;-85
2023/10/08 13:13:13;;;;;;;0.47;0.47;;;;;;;;;;5073006;28;20223;-86
2023/10/08 13:15:43;;;;;;;2.40;1.33;;;;;;;;;;5072390;28;20256;-85
2023/10/08 13:18:12;;;;;;;3.00;1.33;;;;;;;;;;5072598;28;20202;-86
2023/10/08 13:20:44;;;;;;;2.17;1.30;;;;;;;;;;5072328;28;20308;-85
2023/10/08 13:23:13;;;;;;;0.57;0.43;;;;;;;;;;5072664;28;20226;-85
2023/10/08 13:25:42;;;;;;;3.33;1.17;;;;;;;;;;5072414;28;20229;-86
2023/10/08 13:28:11;;;;;;;1.20;1.10;;;;;;;;;;5071971;28;20198;-85
2023/10/08 13:30:40;;;;;;;1.23;1.23;;;;;;;;;;5072035;28;20487;-86
2023/10/08 13:33:10;;;;;;;1.60;1.37;;;;;;;;;;5072492;28;20222;-85
2023/10/08 13:35:39;;;;;;;4.07;2.17;;;;;;;;;;5072013;28;20214;-85
2023/10/08 13:38:13;;;;;;;1.17;1.07;;;;;;;;;;5072127;28;20201;-86
2023/10/08 13:41:01;;;;;;;4.13;1.53;;;;;;;;;;5072208;28;20253;-85
2023/10/08 13:43:34;;;;;;;1.00;0.93;;;;;;;;;;5072450;28;20201;-85
2023/10/08 13:46:12;;;;;;;0.60;0.60;;;;;;;;;;5072148;28;20201;-85
2023/10/08 13:48:46;;;;;;;0.30;0.30;;;;;;;;;;5071570;28;20204;-85
2023/10/08 13:51:20;;;;;;;1.50;0.70;;;;;;;;;;5072058;28;20249;-85
2023/10/08 13:53:52;;;;;;;1.50;1.30;;;;;;;;;;5072462;28;20270;-85
2023/10/08 13:56:26;;;;;;;1.30;1.13;;;;;;;;;;5071903;28;20224;-85
2023/10/08 13:59:03;;;;;;;1.20;1.00;;;;;;;;;;5071581;28;20302;-86
2023/10/08 14:01:33;;;;;;;2.13;1.43;;;;;;;;;;5072102;28;20269;-86
2023/10/08 14:04:06;;;;;;;4.93;2.60;;;;;;;;;;5072227;28;20204;-85
2023/10/08 14:06:36;;;;;;;2.63;1.87;;;;;;;;;;5071961;28;20204;-85
2023/10/08 14:09:08;;;;;;;3.10;1.13;;;;;;;;;;5071515;28;20205;-86
2023/10/08 14:11:37;;;;;;;1.23;0.73;;;;;;;;;;5071741;28;20190;-86
2023/10/08 14:14:10;;;;;;;0.30;0.30;;;;;;;;;;5072162;28;20206;-85
2023/10/08 14:16:41;;;;;;;4.03;1.80;;;;;;;;;;5071590;28;20313;-86
2023/10/08 14:19:12;;;;;;;1.80;1.33;;;;;;;;;;5071341;28;20280;-85
2023/10/08 14:21:49;;;;;;;2.53;1.57;;;;;;;;;;5072044;28;20210;-85
2023/10/08 14:24:18;;;;;;;1.70;1.60;;;;;;;;;;5072183;28;20272;-86
2023/10/08 14:26:51;;;;;;;3.33;2.00;;;;;;;;;;5071637;28;20268;-86
2023/10/08 14:29:20;;;;;;;0.70;0.70;;;;;;;;;;5071742;28;20271;-86
2023/10/08 14:31:49;;;;;;;1.43;0.70;;;;;;;;;;5072055;28;20280;-86
2023/10/08 14:34:29;;;;;;;2.07;1.20;;;;;;;;;;5071739;28;20204;-86
2023/10/08 14:45:18;;;;;;;2.07;1.73;;;;;;;;;;5071167;28;20201;-85
2023/10/08 14:47:48;;;;;;;1.73;1.20;;;;;;;;;;5071174;28;20204;-86
2023/10/08 14:50:18;;;;;;;2.10;1.40;;;;;;;;;;5071697;28;20203;-86
2023/10/08 14:52:47;;;;;;;2.67;1.63;;;;;;;;;;5072036;28;20202;-85
2023/10/08 14:55:16;;;;;;;2.50;1.30;;;;;;;;;;5070807;28;20217;-85
2023/10/08 14:57:45;;;;;;;2.23;0.97;;;;;;;;;;5072052;28;20215;-86
2023/10/08 15:00:13;;;;;;;1.50;1.07;;;;;;;;;;5075551;28;20323;-86
2023/10/08 15:02:42;;;;;;;2.07;1.67;;;;;;;;;;5075503;28;20207;-86
2023/10/08 15:05:11;;;;;;;4.70;2.63;;;;;;;;;;5074911;28;20205;-86
2023/10/08 15:07:42;;;;;;;3.93;1.73;;;;;;;;;;5075231;28;20208;-85
2023/10/08 15:10:13;;;;;;;4.13;2.33;;;;;;;;;;5075236;28;20209;-85
2023/10/08 15:12:41;;;;;;;2.33;1.30;;;;;;;;;;5074978;28;20198;-85
2023/10/08 15:15:13;;;;;;;4.77;2.00;;;;;;;;;;5074706;28;20204;-86
2023/10/08 15:17:43;;;;;;;2.70;2.30;;;;;;;;;;5075112;28;20204;-86
2023/10/08 15:20:14;;;;;;;8.00;3.70;;;;;;;;;;5075327;28;20301;-85
2023/10/08 15:22:44;;;;;;;1.37;1.27;;;;;;;;;;5074705;28;20201;-86
2023/10/08 15:25:14;;;;;;;3.60;1.23;;;;;;;;;;5074424;28;20230;-86
2023/10/08 15:27:44;;;;;;;11.40;5.13;;;;;;;;;;5074574;28;20214;-86
2023/10/08 15:30:15;;;;;;;6.90;4.00;;;;;;;;;;5075011;28;20206;-86
2023/10/08 15:32:45;;;;;;;7.73;4.30;;;;;;;;;;5073931;28;20196;-86
2023/10/08 15:35:19;;;;;;;6.57;4.40;;;;;;;;;;5074541;28;20300;-84
2023/10/08 15:37:49;;;;;;;7.33;4.27;;;;;;;;;;5074773;28;20289;-85
2023/10/08 15:40:18;;;;;;;6.60;3.93;;;;;;;;;;5074707;28;20244;-85
2023/10/08 15:42:49;;;;;;;11.50;4.97;;;;;;;;;;5074319;28;20193;-85